Time;durP1;ratioP1;P1;durP2;ratioP2;P2;SDS_P1;SDS_P2;PMS_P1;PMS_P2;Temp;Humidity;BMP_temperature;BMP_pressure;BME280_temperature;BME280_humidity;BME280_pressure;Samples;Min_cycle;Max_cycle;Signal;HPM_P1;HPM_P2
2021/10/20 00:02:29;;;;;;;1.92;0.57;;;;;;;4.66;100.00;100411.72;5051293;28;20796;-65
2021/10/20 00:05:14;;;;;;;1.33;0.57;;;;;;;4.64;100.00;100423.91;5063639;28;20050;-66
2021/10/20 00:07:58;;;;;;;2.22;0.60;;;;;;;4.68;100.00;100424.88;5047981;28;20055;-67
2021/10/20 00:10:42;;;;;;;0.65;0.50;;;;;;;4.74;100.00;100431.09;5063319;28;20532;-64
2021/10/20 00:13:27;;;;;;;1.90;0.60;;;;;;;4.75;100.00;100434.59;5059350;28;20128;-64
2021/10/20 00:16:14;;;;;;;1.65;0.68;;;;;;;4.71;100.00;100433.66;5054642;28;20071;-64
2021/10/20 00:18:59;;;;;;;2.63;0.70;;;;;;;4.59;100.00;100433.50;5056126;28;20056;-63
2021/10/20 00:21:44;;;;;;;2.15;0.52;;;;;;;4.59;100.00;100437.88;5056737;28;20173;-65
2021/10/20 00:24:28;;;;;;;0.98;0.60;;;;;;;4.51;100.00;100424.63;5055009;28;20067;-65
2021/10/20 00:27:13;;;;;;;1.45;0.57;;;;;;;4.64;100.00;100439.69;5068417;28;20102;-66
2021/10/20 00:29:57;;;;;;;;;;;;;;;4.65;100.00;100453.72;5057930;28;20054;-65
2021/10/20 00:32:44;;;;;;;1.05;0.50;;;;;;;4.63;100.00;100445.81;5056366;28;20396;-64
2021/10/20 00:35:28;;;;;;;1.52;0.60;;;;;;;4.61;100.00;100454.53;5056502;28;20110;-65
2021/10/20 00:38:13;;;;;;;3.17;0.50;;;;;;;4.70;100.00;100460.78;5054281;28;20523;-63
2021/10/20 00:40:59;;;;;;;0.70;0.63;;;;;;;4.62;100.00;100462.44;5055140;28;20160;-67
2021/10/20 00:43:45;;;;;;;1.48;0.63;;;;;;;4.65;100.00;100459.84;5058410;28;20136;-68
2021/10/20 00:46:30;;;;;;;1.50;0.68;;;;;;;4.62;100.00;100470.31;5053597;28;20148;-66
2021/10/20 00:49:16;;;;;;;2.78;0.40;;;;;;;4.43;100.00;100459.47;5057818;28;20169;-63
2021/10/20 00:52:00;;;;;;;1.60;0.60;;;;;;;4.53;100.00;100471.91;5074283;28;20056;-69
2021/10/20 00:54:46;;;;;;;0.80;0.50;;;;;;;4.50;100.00;100477.09;5056714;28;20132;-65
2021/10/20 00:57:32;;;;;;;1.10;0.60;;;;;;;4.45;100.00;100470.91;5054789;28;20136;-68
2021/10/20 01:00:18;;;;;;;1.15;0.50;;;;;;;4.46;100.00;100457.81;5056944;28;20079;-63
2021/10/20 01:03:03;;;;;;;1.23;0.60;;;;;;;4.58;100.00;100472.84;5059228;28;20055;-65
2021/10/20 01:05:47;;;;;;;2.15;0.63;;;;;;;4.50;100.00;100471.84;5057428;28;20076;-64
2021/10/20 01:08:32;;;;;;;1.27;0.73;;;;;;;4.61;100.00;100465.91;5060484;28;20413;-64
2021/10/20 01:11:18;;;;;;;2.78;0.82;;;;;;;4.63;100.00;100473.81;5066220;28;20051;-62
2021/10/20 01:14:02;;;;;;;1.17;0.50;;;;;;;4.48;100.00;100469.19;5064466;28;20098;-65
2021/10/20 01:16:47;;;;;;;4.95;0.85;;;;;;;4.63;100.00;100465.94;5060589;28;20190;-63
2021/10/20 01:19:33;;;;;;;1.05;0.57;;;;;;;4.45;100.00;100469.19;5054986;28;20240;-64
2021/10/20 01:22:18;;;;;;;1.35;0.90;;;;;;;4.28;100.00;100475.88;5074868;28;20055;-63
2021/10/20 01:25:04;;;;;;;3.45;0.90;;;;;;;4.32;100.00;100482.09;5047203;28;20056;-63
2021/10/20 01:27:49;;;;;;;4.50;0.68;;;;;;;4.32;100.00;100477.69;5050296;28;20423;-64
2021/10/20 01:30:34;;;;;;;2.22;0.70;;;;;;;4.10;100.00;100470.34;5073238;28;20528;-65
2021/10/20 01:33:18;;;;;;;3.15;0.65;;;;;;;4.30;100.00;100481.16;5049352;28;20519;-64
2021/10/20 01:36:04;;;;;;;1.70;0.70;;;;;;;4.39;100.00;100476.94;5048632;28;20063;-65
2021/10/20 01:38:51;;;;;;;1.30;0.50;;;;;;;4.37;100.00;100476.06;5065744;28;20047;-64
2021/10/20 01:41:38;;;;;;;1.17;0.60;;;;;;;4.37;100.00;100472.53;5065421;28;20181;-64
2021/10/20 01:44:22;;;;;;;4.00;1.10;;;;;;;4.31;100.00;100464.53;5063760;28;20156;-65
2021/10/20 01:47:07;;;;;;;1.40;0.60;;;;;;;4.14;100.00;100473.91;5064349;28;20098;-63
2021/10/20 01:49:53;;;;;;;2.22;0.73;;;;;;;4.24;100.00;100481.09;5065016;28;20306;-65
2021/10/20 01:52:38;;;;;;;2.40;0.73;;;;;;;4.26;100.00;100481.97;5059917;28;20478;-65
2021/10/20 01:55:23;;;;;;;3.58;0.75;;;;;;;4.37;100.00;100464.66;5062622;28;20094;-64
2021/10/20 01:58:07;;;;;;;2.85;0.70;;;;;;;4.44;100.00;100461.28;5064109;28;20056;-65
2021/10/20 02:00:52;;;;;;;1.85;0.90;;;;;;;4.47;100.00;100475.31;5052070;28;20047;-69
2021/10/20 02:03:38;;;;;;;1.55;0.60;;;;;;;4.33;100.00;100474.25;5057080;28;20118;-66
2021/10/20 02:06:23;;;;;;;3.47;0.90;;;;;;;4.11;100.00;100466.84;5065066;28;20162;-65
2021/10/20 02:09:08;;;;;;;2.10;0.63;;;;;;;4.11;100.00;100481.72;5061400;28;20156;-67
2021/10/20 02:11:52;;;;;;;3.22;0.75;;;;;;;4.10;100.00;100490.44;5056990;28;20130;-65
2021/10/20 02:14:39;;;;;;;0.82;0.63;;;;;;;3.96;100.00;100477.09;5069302;28;20056;-66
2021/10/20 02:17:23;;;;;;;2.25;0.75;;;;;;;4.12;100.00;100484.38;5061625;28;20110;-67
2021/10/20 02:20:10;;;;;;;1.98;0.70;;;;;;;4.14;100.00;100485.28;5053989;28;20432;-67
2021/10/20 02:22:55;;;;;;;3.17;0.90;;;;;;;3.83;100.00;100487.34;5068189;28;20063;-65
2021/10/20 02:25:39;;;;;;;1.40;0.70;;;;;;;3.80;100.00;100482.91;5068304;28;20051;-68
2021/10/20 02:28:25;;;;;;;2.05;0.70;;;;;;;3.63;100.00;100491.31;5051152;28;20094;-67
2021/10/20 02:31:11;;;;;;;0.98;0.60;;;;;;;3.57;100.00;100493.84;5056537;28;20105;-67
2021/10/20 02:33:55;;;;;;;1.60;0.60;;;;;;;3.50;100.00;100490.22;5069563;28;20063;-67
2021/10/20 02:36:40;;;;;;;2.67;1.15;;;;;;;3.46;100.00;100505.84;5067427;28;20133;-64
2021/10/20 02:39:25;;;;;;;3.40;1.75;;;;;;;3.45;100.00;100511.97;5066273;28;20607;-70
2021/10/20 02:42:09;;;;;;;1.08;0.70;;;;;;;3.49;100.00;100503.31;5052095;28;20095;-64
2021/10/20 02:44:53;;;;;;;5.03;0.68;;;;;;;3.27;100.00;100515.09;5060549;28;20055;-65
2021/10/20 02:47:38;;;;;;;1.40;0.70;;;;;;;3.27;100.00;100512.47;5059631;28;20146;-68
2021/10/20 02:50:22;;;;;;;1.88;0.80;;;;;;;3.28;100.00;100508.97;5058332;28;20413;-65
2021/10/20 02:53:07;;;;;;;1.80;0.57;;;;;;;3.14;100.00;100512.16;5066595;28;20117;-64
2021/10/20 02:55:52;;;;;;;2.42;0.63;;;;;;;3.17;100.00;100523.59;5047948;28;20692;-65
2021/10/20 02:58:36;;;;;;;1.70;0.75;;;;;;;3.19;100.00;100524.53;5059252;28;20451;-67
2021/10/20 03:01:21;;;;;;;1.95;0.90;;;;;;;3.09;100.00;100524.31;5066283;28;20102;-66
2021/10/20 03:04:06;;;;;;;1.55;0.70;;;;;;;3.13;100.00;100521.75;5054184;28;20063;-65
2021/10/20 03:06:51;;;;;;;1.73;0.80;;;;;;;3.18;100.00;100522.75;5067611;28;20562;-67
2021/10/20 03:09:35;;;;;;;1.35;0.73;;;;;;;3.17;100.00;100526.22;5063818;28;20082;-64
2021/10/20 03:12:20;;;;;;;2.55;0.80;;;;;;;3.05;100.00;100527.72;5065328;28;20047;-65
2021/10/20 03:15:06;;;;;;;1.77;0.70;;;;;;;3.04;100.00;100539.00;5057872;28;20047;-62
2021/10/20 03:17:50;;;;;;;2.15;0.82;;;;;;;3.03;100.00;100538.16;5050380;28;20106;-70
2021/10/20 03:20:35;;;;;;;3.55;0.75;;;;;;;3.03;100.00;100545.09;5055596;28;20051;-65
2021/10/20 03:23:20;;;;;;;2.08;0.68;;;;;;;2.87;100.00;100535.13;5063948;28;20564;-66
2021/10/20 03:26:04;;;;;;;1.90;0.93;;;;;;;2.95;100.00;100554.53;5067310;28;20519;-66
2021/10/20 03:28:49;;;;;;;2.08;0.90;;;;;;;2.92;100.00;100564.94;5066443;28;20059;-66
2021/10/20 03:31:33;;;;;;;2.28;0.93;;;;;;;2.92;100.00;100562.31;5066402;28;20481;-65
2021/10/20 03:34:18;;;;;;;;;;;;;;;2.91;100.00;100564.06;5062885;28;20055;-65
2021/10/20 03:37:03;;;;;;;1.80;0.80;;;;;;;2.97;100.00;100572.03;5058781;28;19927;-65
2021/10/20 03:39:47;;;;;;;1.45;0.63;;;;;;;2.84;100.00;100582.19;5065653;28;20060;-65
2021/10/20 03:42:33;;;;;;;;;;;;;;;2.89;100.00;100586.69;5065136;28;20056;-70
2021/10/20 03:45:17;;;;;;;3.25;1.05;;;;;;;2.86;100.00;100594.50;5054890;28;19928;-64
2021/10/20 03:48:02;;;;;;;1.80;1.00;;;;;;;3.00;100.00;100592.19;5037258;28;20051;-67
2021/10/20 03:50:47;;;;;;;1.92;1.00;;;;;;;2.79;100.00;100587.34;5059097;28;20409;-68
2021/10/20 03:53:31;;;;;;;2.03;1.05;;;;;;;2.80;100.00;100585.59;5057137;28;20715;-66
2021/10/20 03:56:16;;;;;;;3.50;1.30;;;;;;;2.80;100.00;100577.72;5051111;28;20117;-66
2021/10/20 03:59:06;;;;;;;2.83;1.17;;;;;;;2.97;100.00;100572.03;5066075;28;20042;-67
2021/10/20 04:01:51;;;;;;;1.55;1.10;;;;;;;2.91;100.00;100590.25;5057282;28;20055;-64
2021/10/20 04:04:35;;;;;;;3.47;1.52;;;;;;;2.87;100.00;100587.50;5051833;28;20596;-66
2021/10/20 04:07:20;;;;;;;3.85;1.40;;;;;;;2.82;100.00;100594.38;5064768;28;20511;-66
2021/10/20 04:10:10;;;;;;;3.88;1.40;;;;;;;2.88;100.00;100597.13;5066902;28;20420;-66
2021/10/20 04:12:55;;;;;;;2.95;1.20;;;;;;;2.83;100.00;100594.44;5061027;28;20051;-64
2021/10/20 04:15:40;;;;;;;3.50;1.30;;;;;;;2.75;100.00;100589.84;5065736;28;20098;-72
2021/10/20 04:18:24;;;;;;;5.22;1.50;;;;;;;2.74;100.00;100596.84;5063760;28;20118;-65
2021/10/20 04:21:09;;;;;;;1.88;1.02;;;;;;;2.74;100.00;100596.84;5056151;28;20575;-65
2021/10/20 04:23:53;;;;;;;3.90;1.35;;;;;;;2.67;100.00;100591.41;5064686;28;20078;-64
2021/10/20 04:26:38;;;;;;;4.50;1.50;;;;;;;2.67;100.00;100600.16;5049472;28;20536;-66
2021/10/20 04:29:22;;;;;;;2.38;1.52;;;;;;;2.74;100.00;100599.44;5060954;28;20043;-63
2021/10/20 04:32:07;;;;;;;6.00;1.40;;;;;;;2.72;100.00;100615.94;5050801;28;20102;-64
2021/10/20 04:34:51;;;;;;;2.10;1.10;;;;;;;2.66;100.00;100615.81;5031795;28;20514;-62
2021/10/20 04:37:38;;;;;;;3.22;1.38;;;;;;;2.69;100.00;100610.66;5061454;28;20051;-62
2021/10/20 04:40:22;;;;;;;2.80;1.88;;;;;;;2.66;100.00;100608.84;5064689;28;20048;-69
2021/10/20 04:43:07;;;;;;;;;;;;;;;2.66;100.00;100615.81;5065948;28;20190;-62
2021/10/20 04:45:54;;;;;;;4.15;1.65;;;;;;;2.55;100.00;100612.94;5064098;28;20661;-67
2021/10/20 04:48:38;;;;;;;4.50;1.63;;;;;;;2.58;100.00;100612.13;5055725;28;20102;-64
2021/10/20 04:51:23;;;;;;;4.55;1.45;;;;;;;2.68;100.00;100617.63;5058037;28;20524;-62
2021/10/20 04:54:07;;;;;;;5.35;1.88;;;;;;;2.87;100.00;100618.94;5063789;28;20055;-72
2021/10/20 04:56:52;;;;;;;4.68;2.08;;;;;;;3.03;100.00;100621.97;5053222;28;20067;-61
2021/10/20 04:59:36;;;;;;;4.80;1.90;;;;;;;3.29;100.00;100612.94;5061958;28;20042;-64
2021/10/20 05:02:20;;;;;;;2.95;1.90;;;;;;;3.41;100.00;100613.22;5064011;28;20047;-64
2021/10/20 05:05:07;;;;;;;4.65;1.95;;;;;;;3.51;100.00;100615.19;5062381;28;20532;-63
2021/10/20 05:07:53;;;;;;;6.30;1.95;;;;;;;3.64;100.00;100613.72;5057002;28;20067;-65
2021/10/20 05:10:39;;;;;;;7.05;1.95;;;;;;;3.88;100.00;100615.09;5072432;28;20419;-67
2021/10/20 05:13:24;;;;;;;3.45;2.03;;;;;;;4.01;100.00;100611.00;5050721;28;20573;-72
2021/10/20 05:16:09;;;;;;;4.03;1.83;;;;;;;3.77;100.00;100606.13;5046043;28;20087;-63
2021/10/20 05:18:53;;;;;;;4.22;1.83;;;;;;;3.67;100.00;100609.44;5063319;28;20836;-70
2021/10/20 05:21:38;;;;;;;6.15;2.22;;;;;;;3.66;100.00;100617.25;5064791;28;20547;-63
2021/10/20 05:24:23;;;;;;;5.32;3.25;;;;;;;3.70;100.00;100614.75;5054080;28;20051;-64
2021/10/20 05:27:10;;;;;;;4.45;2.10;;;;;;;3.73;100.00;100613.91;5060296;28;20066;-72
2021/10/20 05:29:57;;;;;;;10.43;4.80;;;;;;;3.70;100.00;100617.38;5064150;28;20063;-66
2021/10/20 05:32:42;;;;;;;5.47;2.30;;;;;;;3.53;100.00;100607.38;5062406;28;20047;-69
2021/10/20 05:35:27;;;;;;;4.15;2.00;;;;;;;3.55;100.00;100605.66;5063610;28;20071;-63
2021/10/20 05:38:14;;;;;;;5.53;2.33;;;;;;;3.61;100.00;100609.28;5060484;28;20066;-65
2021/10/20 05:40:58;;;;;;;4.65;2.80;;;;;;;3.73;100.00;100609.53;5063113;28;20531;-63
2021/10/20 05:43:43;;;;;;;5.38;2.97;;;;;;;3.72;100.00;100617.41;5068395;28;20898;-65
2021/10/20 05:46:27;;;;;;;7.70;2.92;;;;;;;3.65;100.00;100613.75;5069638;28;20047;-63
2021/10/20 05:49:12;;;;;;;7.82;3.08;;;;;;;3.76;100.00;100603.50;5036841;28;20109;-66
2021/10/20 05:51:57;;;;;;;6.85;2.75;;;;;;;3.89;100.00;100611.66;5067506;28;20083;-71
2021/10/20 05:54:42;;;;;;;8.77;2.78;;;;;;;3.86;100.00;100608.94;5071135;28;20533;-65
2021/10/20 05:57:28;;;;;;;9.00;5.00;;;;;;;3.85;100.00;100609.81;5067994;28;20102;-66
2021/10/20 06:00:14;;;;;;;9.25;3.83;;;;;;;3.65;100.00;100605.00;5070420;28;20412;-65
2021/10/20 06:02:59;;;;;;;5.55;3.40;;;;;;;4.00;100.00;100617.97;5068121;28;20063;-65
2021/10/20 06:05:43;;;;;;;10.05;3.45;;;;;;;4.13;100.00;100604.25;5048984;28;20052;-66
2021/10/20 06:08:28;;;;;;;2.78;2.00;;;;;;;4.02;100.00;100603.16;5064682;28;20496;-65
2021/10/20 06:11:12;;;;;;;5.82;2.10;;;;;;;3.99;100.00;100608.34;5069499;28;20057;-75
2021/10/20 06:13:57;;;;;;;6.47;2.53;;;;;;;3.90;100.00;100616.03;5061065;28;20064;-65
2021/10/20 06:16:42;;;;;;;1.95;1.50;;;;;;;3.88;100.00;100611.63;5063320;28;20167;-67
2021/10/20 06:19:27;;;;;;;3.20;1.63;;;;;;;3.69;100.00;100610.31;5061006;28;20102;-68
2021/10/20 06:22:12;;;;;;;2.28;1.65;;;;;;;3.78;100.00;100614.88;5069071;28;20055;-66
2021/10/20 06:24:57;;;;;;;7.95;1.70;;;;;;;3.84;100.00;100615.03;5067992;28;20102;-66
2021/10/20 06:27:41;;;;;;;3.05;1.50;;;;;;;3.94;100.00;100619.59;5070021;28;20051;-66
2021/10/20 06:30:26;;;;;;;5.55;1.98;;;;;;;3.84;100.00;100610.66;5052835;28;20449;-73
2021/10/20 06:33:11;;;;;;;3.70;2.22;;;;;;;3.99;100.00;100613.56;5068849;28;20089;-65
2021/10/20 06:35:55;;;;;;;8.90;2.50;;;;;;;4.20;100.00;100611.34;5037463;28;20098;-65
2021/10/20 06:38:39;;;;;;;3.72;2.40;;;;;;;4.09;100.00;100614.66;5069829;28;20531;-64
2021/10/20 06:41:24;;;;;;;4.32;1.92;;;;;;;3.92;100.00;100616.06;5071840;28;20122;-65
2021/10/20 06:44:08;;;;;;;7.53;1.75;;;;;;;4.24;100.00;100607.94;5056099;28;20175;-65
2021/10/20 06:46:56;;;;;;;7.10;2.50;;;;;;;4.38;100.00;100602.94;5060200;28;20206;-64
2021/10/20 06:49:41;;;;;;;3.20;2.10;;;;;;;4.59;100.00;100598.94;5068078;28;20094;-70
2021/10/20 06:52:27;;;;;;;3.97;2.15;;;;;;;4.51;100.00;100594.44;5060953;28;20436;-68
2021/10/20 06:55:13;;;;;;;10.98;2.70;;;;;;;4.25;100.00;100600.94;5062024;28;20052;-66
2021/10/20 06:57:57;;;;;;;;;;;;;;;4.38;100.00;100603.84;5063016;28;20190;-64
2021/10/20 07:00:42;;;;;;;4.80;2.00;;;;;;;4.43;100.00;100588.13;5070249;28;20733;-65
2021/10/20 07:03:27;;;;;;;3.58;2.20;;;;;;;4.31;100.00;100587.91;5065965;28;20117;-64
2021/10/20 07:06:12;;;;;;;4.28;2.45;;;;;;;4.45;100.00;100589.06;5041007;28;20098;-65
2021/10/20 07:08:57;;;;;;;6.82;2.47;;;;;;;4.68;100.00;100587.72;5050645;28;20063;-67
2021/10/20 07:11:41;;;;;;;4.95;2.42;;;;;;;4.61;100.00;100575.34;5054599;28;20135;-65
2021/10/20 07:14:25;;;;;;;6.20;2.75;;;;;;;4.94;100.00;100595.16;5058515;28;20464;-65
2021/10/20 07:17:10;;;;;;;4.47;2.40;;;;;;;5.33;100.00;100584.31;5057592;28;20558;-62
2021/10/20 07:19:54;;;;;;;17.10;3.27;;;;;;;5.57;100.00;100596.94;5041025;28;20290;-65
2021/10/20 07:22:39;;;;;;;6.70;2.60;;;;;;;5.54;98.85;100581.09;5067270;28;20297;-63
2021/10/20 07:25:24;;;;;;;4.55;2.65;;;;;;;5.26;97.14;100582.47;5066868;28;20067;-63
2021/10/20 07:28:09;;;;;;;4.45;2.10;;;;;;;5.48;96.01;100587.16;5065436;28;20592;-69
2021/10/20 07:30:55;;;;;;;7.60;2.55;;;;;;;5.89;94.47;100580.69;5065331;28;20047;-62
2021/10/20 07:33:39;;;;;;;4.07;2.30;;;;;;;5.88;91.94;100586.81;5066213;28;20051;-65
2021/10/20 07:36:25;;;;;;;7.22;2.20;;;;;;;6.02;90.77;100580.00;5051698;28;20480;-66
2021/10/20 07:39:11;;;;;;;7.03;3.22;;;;;;;5.83;90.02;100579.75;5065408;28;20059;-65
2021/10/20 07:41:56;;;;;;;8.60;3.08;;;;;;;5.72;90.28;100578.69;5067224;28;20102;-67
2021/10/20 07:44:40;;;;;;;7.65;3.28;;;;;;;5.36;89.98;100575.59;5068292;28;20093;-64
2021/10/20 07:47:26;;;;;;;7.38;3.75;;;;;;;5.39;90.82;100573.91;5073730;28;20125;-69
2021/10/20 07:50:12;;;;;;;11.10;3.35;;;;;;;5.32;91.18;100563.25;5050354;28;20047;-65
2021/10/20 07:52:58;;;;;;;7.50;3.95;;;;;;;5.44;92.04;100558.16;5058547;28;20055;-63
2021/10/20 07:55:42;;;;;;;6.22;4.07;;;;;;;6.77;89.27;100546.41;5065370;28;20087;-64
2021/10/20 07:58:27;;;;;;;11.98;4.50;;;;;;;9.03;80.68;100556.84;5065910;28;20090;-65
2021/10/20 08:01:12;;;;;;;7.72;3.85;;;;;;;10.24;68.23;100557.31;5058071;28;20068;-66
2021/10/20 08:03:56;;;;;;;10.48;3.95;;;;;;;8.74;66.61;100545.41;5065758;28;20059;-65
2021/10/20 08:06:41;;;;;;;12.50;3.75;;;;;;;8.23;68.94;100536.59;5047427;28;20055;-67
2021/10/20 08:09:26;;;;;;;8.73;3.58;;;;;;;8.69;68.21;100544.56;5063986;28;20086;-64
2021/10/20 08:12:10;;;;;;;6.13;2.78;;;;;;;9.98;65.36;100545.97;5048945;28;20050;-65
2021/10/20 08:14:56;;;;;;;6.82;2.78;;;;;;;9.35;59.90;100541.78;5068156;28;20125;-64
2021/10/20 08:17:42;;;;;;;4.63;2.55;;;;;;;8.12;60.85;100548.88;5037366;28;20583;-65
2021/10/20 08:20:31;;;;;;;5.28;2.72;;;;;;;6.97;65.61;100539.53;5065023;28;20106;-65
2021/10/20 08:23:15;;;;;;;8.07;2.20;;;;;;;6.53;71.02;100527.78;5065468;28;20055;-66
2021/10/20 08:26:00;;;;;;;4.80;2.25;;;;;;;6.47;74.22;100534.75;5064085;28;20524;-64
2021/10/20 08:28:45;;;;;;;5.07;2.55;;;;;;;6.46;75.50;100528.63;5066764;28;20050;-66
2021/10/20 08:31:30;;;;;;;4.65;2.35;;;;;;;6.29;76.87;100538.09;5064269;28;20133;-67
2021/10/20 08:34:14;;;;;;;4.65;2.35;;;;;;;6.19;78.02;100528.38;5031929;28;20047;-66
2021/10/20 08:36:59;;;;;;;5.55;2.33;;;;;;;6.19;78.31;100524.84;5063693;28;20156;-67
2021/10/20 08:39:45;;;;;;;4.45;2.20;;;;;;;6.12;79.91;100516.00;5065155;28;20511;-68
2021/10/20 08:42:30;;;;;;;8.52;2.60;;;;;;;6.03;80.91;100515.03;5050275;28;20055;-64
2021/10/20 08:45:14;;;;;;;11.35;4.65;;;;;;;5.76;81.58;100501.56;5049944;28;20055;-70
2021/10/20 08:47:59;;;;;;;9.27;4.33;;;;;;;5.72;84.14;100508.53;5062798;28;20071;-67
2021/10/20 08:50:49;;;;;;;11.68;5.25;;;;;;;5.51;86.46;100502.16;5054633;28;20286;-66
2021/10/20 08:53:35;;;;;;;10.82;3.45;;;;;;;5.49;87.42;100504.75;5072087;28;20102;-67
2021/10/20 08:56:19;;;;;;;9.82;3.42;;;;;;;5.35;87.10;100501.09;5038660;28;20067;-69
2021/10/20 08:59:04;;;;;;;3.45;2.30;;;;;;;5.33;87.14;100494.06;5063533;28;20093;-72
2021/10/20 09:01:49;;;;;;;7.47;3.70;;;;;;;5.54;87.72;100489.91;5064996;28;20086;-66
2021/10/20 09:04:33;;;;;;;7.40;3.25;;;;;;;5.61;87.40;100489.13;5062093;28;20056;-63
2021/10/20 09:07:20;;;;;;;4.30;1.95;;;;;;;5.58;85.46;100481.19;5049864;28;20102;-64
2021/10/20 09:10:07;;;;;;;3.70;2.38;;;;;;;5.55;85.78;100480.28;5058717;28;20095;-70
2021/10/20 09:12:56;;;;;;;3.33;2.13;;;;;;;5.37;84.91;100473.06;5053454;28;20091;-67
2021/10/20 09:15:43;;;;;;;4.88;1.98;;;;;;;5.39;85.10;100478.34;5053100;28;20102;-64
2021/10/20 09:18:37;;;;;;;5.88;2.60;;;;;;;5.29;85.39;100452.81;5054287;28;20052;-64
2021/10/20 09:21:22;;;;;;;5.05;2.05;;;;;;;5.13;87.58;100474.53;5027571;28;20047;-68
2021/10/20 09:24:10;;;;;;;5.47;1.60;;;;;;;5.31;87.97;100487.88;5053129;28;20086;-71
2021/10/20 09:26:58;;;;;;;4.28;2.03;;;;;;;5.12;88.86;100463.13;5067360;28;20876;-64
2021/10/20 09:29:43;;;;;;;2.95;1.67;;;;;;;4.96;90.93;100490.06;5057752;28;20136;-64
2021/10/20 09:32:27;;;;;;;1.42;1.20;;;;;;;5.12;91.15;100501.66;5050089;28;20997;-65
2021/10/20 09:35:12;;;;;;;2.95;1.40;;;;;;;5.13;89.93;100499.03;5056684;28;20090;-68
2021/10/20 09:38:01;;;;;;;5.25;1.20;;;;;;;4.82;88.68;100484.59;5055317;28;20484;-68
2021/10/20 09:40:48;;;;;;;2.70;1.08;;;;;;;4.61;89.82;100480.78;5055230;28;20416;-73
2021/10/20 09:43:43;;;;;;;1.23;0.85;;;;;;;4.89;89.08;100499.59;5065190;28;20101;-65
2021/10/20 09:46:43;;;;;;;2.63;1.15;;;;;;;5.35;87.13;100487.06;5058404;28;20159;-65
2021/10/20 09:49:33;;;;;;;4.60;1.20;;;;;;;5.83;85.40;100475.38;5067321;28;20071;-69
2021/10/20 09:52:22;;;;;;;4.40;1.00;;;;;;;7.95;77.98;100479.28;5052703;28;20067;-65
2021/10/20 09:55:09;;;;;;;3.17;1.10;;;;;;;8.43;67.60;100469.66;5057945;28;20147;-65
2021/10/20 09:58:09;;;;;;;1.95;1.10;;;;;;;8.22;64.57;100474.94;5053890;28;20155;-70
2021/10/20 10:00:55;;;;;;;4.18;1.20;;;;;;;8.78;62.63;100462.56;5048737;28;20052;-65
2021/10/20 10:03:42;;;;;;;3.97;1.55;;;;;;;9.89;59.43;100458.56;5041269;28;20080;-64
2021/10/20 10:06:29;;;;;;;3.70;1.38;;;;;;;9.81;58.17;100454.22;5054321;28;20071;-73
2021/10/20 10:09:15;;;;;;;3.28;1.52;;;;;;;8.92;58.11;100446.69;5061733;28;20127;-63
2021/10/20 10:12:20;;;;;;;7.75;2.47;;;;;;;9.05;60.06;100438.69;5063908;28;20405;-64
2021/10/20 10:15:09;;;;;;;2.65;1.80;;;;;;;9.12;61.21;100439.56;5048075;28;20051;-66
2021/10/20 10:17:56;;;;;;;3.63;1.50;;;;;;;9.53;58.98;100430.56;5064427;28;20090;-66
2021/10/20 10:20:45;;;;;;;3.03;1.45;;;;;;;9.70;58.33;100425.16;5053492;28;20051;-68
2021/10/20 10:23:30;;;;;;;3.83;1.40;;;;;;;9.84;56.93;100418.00;5072410;28;20551;-71
2021/10/20 10:26:15;;;;;;;4.10;1.40;;;;;;;9.47;56.00;100409.38;5049193;28;20127;-68
2021/10/20 10:29:13;;;;;;;4.78;1.27;;;;;;;8.84;56.91;100420.25;5063127;28;20048;-65
2021/10/20 10:32:04;;;;;;;2.03;1.10;;;;;;;9.19;58.21;100412.19;5052373;28;20515;-66
2021/10/20 10:34:50;;;;;;;2.97;1.30;;;;;;;8.45;58.30;100415.06;5066992;28;20048;-71
2021/10/20 10:37:36;;;;;;;2.15;1.42;;;;;;;9.17;59.14;100408.66;5059241;28;20063;-67
2021/10/20 10:40:25;;;;;;;3.25;1.40;;;;;;;10.01;57.53;100402.00;5061034;28;20083;-65
2021/10/20 10:43:11;;;;;;;2.58;1.30;;;;;;;9.46;55.29;100399.69;5073009;28;20526;-70
2021/10/20 10:45:56;;;;;;;5.15;1.40;;;;;;;9.08;56.00;100384.91;5052939;28;20055;-73
2021/10/20 10:48:44;;;;;;;4.82;1.20;;;;;;;8.58;57.02;100386.81;5054790;28;20106;-67
2021/10/20 10:51:30;;;;;;;2.58;1.10;;;;;;;8.41;59.31;100365.72;5067185;28;20055;-65
2021/10/20 10:54:35;;;;;;;2.63;1.10;;;;;;;9.01;58.91;100354.97;5057697;28;20073;-66
2021/10/20 10:57:20;;;;;;;2.00;1.08;;;;;;;8.40;58.42;100348.13;5061575;28;20067;-66
2021/10/20 11:00:08;;;;;;;2.42;1.20;;;;;;;8.26;59.53;100334.03;5046783;28;20060;-69
2021/10/20 11:02:58;;;;;;;1.90;0.85;;;;;;;7.58;60.33;100338.44;5070813;28;20106;-66
2021/10/20 11:05:53;;;;;;;1.98;0.90;;;;;;;7.40;62.27;100324.34;5043120;28;20168;-65
2021/10/20 11:08:40;;;;;;;2.53;1.20;;;;;;;7.18;63.54;100331.34;5056666;28;20060;-65
2021/10/20 11:11:26;;;;;;;1.92;1.05;;;;;;;6.96;64.34;100340.06;5057757;28;20411;-68
2021/10/20 11:14:16;;;;;;;3.40;1.13;;;;;;;7.11;65.13;100336.56;5055166;28;20126;-63
2021/10/20 11:17:05;;;;;;;1.80;1.00;;;;;;;7.31;64.69;100329.59;5057231;28;20393;-68
2021/10/20 11:19:50;;;;;;;1.83;0.80;;;;;;;6.76;64.30;100339.09;5051858;28;20108;-66
2021/10/20 11:22:36;;;;;;;2.03;0.80;;;;;;;6.71;66.02;100330.31;5036438;28;20082;-67
2021/10/20 11:25:22;;;;;;;3.85;0.90;;;;;;;7.20;65.99;100337.50;5065575;28;20427;-64
2021/10/20 11:28:08;;;;;;;2.40;0.70;;;;;;;7.63;65.14;100330.50;5071404;28;20078;-64
2021/10/20 11:30:53;;;;;;;2.00;0.80;;;;;;;7.89;63.25;100321.75;5065923;28;20627;-71
2021/10/20 11:33:38;;;;;;;2.53;0.90;;;;;;;7.55;61.93;100313.78;5064899;28;20063;-65
2021/10/20 11:36:22;;;;;;;1.85;0.80;;;;;;;7.32;62.83;100315.56;5060221;28;20052;-65
2021/10/20 11:39:08;;;;;;;2.33;0.98;;;;;;;7.29;63.46;100319.06;5060054;28;20098;-64
2021/10/20 11:41:56;;;;;;;2.03;0.70;;;;;;;7.43;63.14;100319.94;5056762;28;20159;-65
2021/10/20 11:44:43;;;;;;;2.88;0.80;;;;;;;7.57;63.19;100318.22;5071526;28;20777;-70
2021/10/20 11:47:29;;;;;;;1.40;0.80;;;;;;;7.81;63.45;100319.97;5056681;28;20052;-64
2021/10/20 11:50:19;;;;;;;3.65;0.80;;;;;;;7.75;62.71;100322.63;5052878;28;20117;-64
2021/10/20 11:53:07;;;;;;;3.45;1.00;;;;;;;7.66;63.19;100307.66;5057111;28;20051;-61
2021/10/20 11:55:58;;;;;;;7.72;0.85;;;;;;;7.67;63.47;100295.31;5054799;28;20079;-64
2021/10/20 11:58:43;;;;;;;3.35;1.10;;;;;;;7.72;63.92;100293.59;5056374;28;20059;-66
2021/10/20 12:01:32;;;;;;;3.67;1.20;;;;;;;7.86;64.11;100282.13;5070645;28;20064;-64
2021/10/20 12:04:18;;;;;;;4.78;1.08;;;;;;;7.53;63.57;100279.53;5053909;28;20087;-64
2021/10/20 12:07:05;;;;;;;2.00;0.90;;;;;;;7.36;64.38;100275.13;5055237;28;20531;-63
2021/10/20 12:09:50;;;;;;;3.80;1.10;;;;;;;7.65;64.04;100270.72;5070259;28;20409;-66
2021/10/20 12:12:36;;;;;;;5.07;1.30;;;;;;;7.59;64.58;100247.84;5059822;28;20082;-70
2021/10/20 12:15:22;;;;;;;10.52;1.67;;;;;;;7.33;65.10;100246.97;5043786;28;20169;-63
2021/10/20 12:18:08;;;;;;;4.93;1.10;;;;;;;7.04;64.72;100230.22;5049530;28;20484;-64
2021/10/20 12:20:56;;;;;;;3.08;1.25;;;;;;;7.12;64.51;100232.88;5064511;28;20098;-60
2021/10/20 12:23:44;;;;;;;2.58;0.90;;;;;;;7.02;62.75;100232.00;5062396;28;20062;-65
2021/10/20 12:26:31;;;;;;;3.47;0.77;;;;;;;6.88;62.78;100217.03;5038359;28;20056;-66
2021/10/20 12:29:16;;;;;;;4.45;0.70;;;;;;;6.72;63.08;100231.91;5050454;28;20047;-63
2021/10/20 12:32:01;;;;;;;3.65;0.70;;;;;;;6.57;64.21;100234.50;5045147;28;20076;-65
2021/10/20 12:34:54;;;;;;;3.30;0.60;;;;;;;6.59;63.93;100216.06;5061995;28;20051;-66
2021/10/20 12:37:43;;;;;;;2.05;0.60;;;;;;;6.37;64.25;100217.75;5051852;28;20084;-67
2021/10/20 12:40:28;;;;;;;2.38;0.90;;;;;;;6.38;64.93;100221.28;5062989;28;20106;-68
2021/10/20 12:43:18;;;;;;;1.27;0.70;;;;;;;6.31;65.11;100217.75;5046027;28;20072;-67
2021/10/20 12:46:05;;;;;;;2.63;0.68;;;;;;;6.25;63.98;100228.22;5064613;28;20152;-68
2021/10/20 12:48:51;;;;;;;1.92;0.82;;;;;;;5.92;64.23;100238.59;5055723;28;20527;-68
2021/10/20 12:51:39;;;;;;;1.67;0.70;;;;;;;5.93;64.65;100214.03;5056297;28;20094;-68
2021/10/20 12:54:23;;;;;;;3.05;1.00;;;;;;;5.98;65.38;100221.97;5054095;28;20051;-68
2021/10/20 12:57:09;;;;;;;3.83;0.68;;;;;;;6.12;66.21;100212.38;5069228;28;20512;-65